Time,TemperatureF,DewpointF,PressureIn,WindDirection,WindDirectionDegrees,WindSpeedMPH,WindSpeedGustMPH,Humidity,HourlyPrecipIn,Conditions,Clouds,dailyrainin,SoftwareType,DateUTC
2013-05-03 00:01:00,46.0,25.0,-100.00,East,79,3.0,5.0,44,-99.99,,,-99.99,,2013-05-03 07:01:00,
2013-05-03 00:52:00,46.0,25.0,-100.00,West,275,0.0,1.0,44,-99.99,,,-99.99,,2013-05-03 07:52:00,
2013-05-03 01:01:00,46.0,25.0,-100.00,West,275,0.0,1.0,44,-99.99,,,-99.99,,2013-05-03 08:01:00,
2013-05-03 01:32:00,46.0,22.0,-100.00,NNE,31,1.0,3.0,39,-99.99,,,-99.99,,2013-05-03 08:32:00,
2013-05-03 01:42:00,46.0,22.0,-100.00,NNE,31,1.0,3.0,39,-99.99,,,-99.99,,2013-05-03 08:42:00,
2013-05-03 01:52:00,43.0,24.0,-100.00,ENE,58,1.0,3.0,47,-99.99,,,-99.99,,2013-05-03 08:52:00,
2013-05-03 02:01:00,43.0,24.0,-100.00,ENE,58,1.0,3.0,47,-99.99,,,-99.99,,2013-05-03 09:01:00,
2013-05-03 02:53:00,41.0,18.0,-100.00,East,79,0.0,2.0,39,-99.99,,,-99.99,,2013-05-03 09:53:00,
2013-05-03 03:02:00,41.0,18.0,-100.00,East,79,0.0,2.0,39,-99.99,,,-99.99,,2013-05-03 10:02:00,
2013-05-03 03:32:00,39.0,20.0,-100.00,East,97,3.0,5.0,47,-99.99,,,-99.99,,2013-05-03 10:32:00,
2013-05-03 03:52:00,38.0,18.0,-100.00,ENE,58,2.0,3.0,44,-99.99,,,-99.99,,2013-05-03 10:52:00,
2013-05-03 04:02:00,38.0,18.0,-100.00,ENE,58,2.0,3.0,44,-99.99,,,-99.99,,2013-05-03 11:02:00,
2013-05-03 04:32:00,36.0,21.0,-100.00,SE,124,2.0,4.0,56,-99.99,,,-99.99,,2013-05-03 11:32:00,
2013-05-03 04:52:00,36.0,19.0,-100.00,East,85,3.0,5.0,49,-99.99,,,-99.99,,2013-05-03 11:52:00,
2013-05-03 05:01:00,36.0,19.0,-100.00,East,85,3.0,5.0,49,-99.99,,,-99.99,,2013-05-03 12:01:00,
2013-05-03 05:52:00,37.0,20.0,-100.00,East,93,1.0,3.0,50,-99.99,,,-99.99,,2013-05-03 12:52:00,
2013-05-03 06:01:00,37.0,20.0,-100.00,East,93,1.0,3.0,50,-99.99,,,-99.99,,2013-05-03 13:01:00,
2013-05-03 06:21:00,38.0,28.0,-100.00,SSE,158,0.0,2.0,66,-99.99,,,-99.99,,2013-05-03 13:21:00,
2013-05-03 06:32:00,36.0,24.0,-100.00,ESE,106,3.0,6.0,62,-99.99,,,-99.99,,2013-05-03 13:32:00,
2013-05-03 06:52:00,38.0,28.0,-100.00,SSE,158,0.0,2.0,66,-99.99,,,-99.99,,2013-05-03 13:52:00,
2013-05-03 07:01:00,38.0,28.0,-100.00,SSE,158,0.0,2.0,66,-99.99,,,-99.99,,2013-05-03 14:01:00,
2013-05-03 07:11:00,38.0,28.0,-100.00,SSE,158,0.0,2.0,66,-99.99,,,-99.99,,2013-05-03 14:11:00,
2013-05-03 07:32:00,40.0,30.0,-100.00,NNW,330,0.0,0.0,69,-99.99,,,-99.99,,2013-05-03 14:32:00,
2013-05-03 07:52:00,43.0,34.0,-100.00,NW,315,1.0,5.0,71,-99.99,,,-99.99,,2013-05-03 14:52:00,
2013-05-03 08:01:00,43.0,34.0,-100.00,NW,315,1.0,5.0,71,-99.99,,,-99.99,,2013-05-03 15:01:00,
2013-05-03 08:32:00,49.0,26.0,-100.00,NE,51,2.0,4.0,41,-99.99,,,-99.99,,2013-05-03 15:32:00,
2013-05-03 08:43:00,49.0,26.0,-100.00,NE,51,2.0,4.0,41,-99.99,,,-99.99,,2013-05-03 15:43:00,
2013-05-03 08:53:00,49.0,26.0,-100.00,NE,51,2.0,4.0,41,-99.99,,,-99.99,,2013-05-03 15:53:00,
2013-05-03 09:21:00,57.0,28.0,-100.00,SW,224,1.0,4.0,33,-99.99,,,-99.99,,2013-05-03 16:21:00,
2013-05-03 09:33:00,55.0,29.0,-100.00,South,188,0.0,2.0,36,-99.99,,,-99.99,,2013-05-03 16:33:00,
2013-05-03 09:42:00,55.0,29.0,-100.00,South,188,0.0,2.0,36,-99.99,,,-99.99,,2013-05-03 16:42:00,
2013-05-03 09:52:00,57.0,28.0,-100.00,SW,224,1.0,4.0,33,-99.99,,,-99.99,,2013-05-03 16:52:00,
2013-05-03 10:01:00,61.0,29.0,-100.00,South,169,1.0,3.0,29,-99.99,,,-99.99,,2013-05-03 17:01:00,
2013-05-03 10:02:00,57.0,28.0,-100.00,SW,224,1.0,4.0,33,-99.99,,,-99.99,,2013-05-03 17:02:00,
2013-05-03 10:11:00,57.0,28.0,-100.00,SW,224,1.0,4.0,33,-99.99,,,-99.99,,2013-05-03 17:11:00,
2013-05-03 10:32:00,61.0,29.0,-100.00,South,169,1.0,3.0,29,-99.99,,,-99.99,,2013-05-03 17:32:00,
2013-05-03 10:42:00,61.0,29.0,-100.00,South,169,1.0,3.0,29,-99.99,,,-99.99,,2013-05-03 17:42:00,
2013-05-03 10:52:00,61.0,29.0,-100.00,South,169,1.0,3.0,29,-99.99,,,-99.99,,2013-05-03 17:52:00,
2013-05-03 11:21:00,70.0,25.0,-100.00,WNW,301,6.0,11.0,18,-99.99,,,-99.99,,2013-05-03 18:21:00,
2013-05-03 11:32:00,68.0,32.0,-100.00,SW,224,1.0,4.0,27,-99.99,,,-99.99,,2013-05-03 18:32:00,
2013-05-03 11:42:00,68.0,32.0,-100.00,SW,224,1.0,4.0,27,-99.99,,,-99.99,,2013-05-03 18:42:00,
2013-05-03 11:52:00,70.0,25.0,-100.00,WNW,301,6.0,11.0,18,-99.99,,,-99.99,,2013-05-03 18:52:00,
2013-05-03 12:01:00,70.0,25.0,-100.00,WNW,301,6.0,11.0,18,-99.99,,,-99.99,,2013-05-03 19:01:00,
2013-05-03 12:11:00,70.0,25.0,-100.00,WNW,301,6.0,11.0,18,-99.99,,,-99.99,,2013-05-03 19:11:00,
2013-05-03 12:21:00,72.0,26.0,-100.00,WNW,296,7.0,13.0,18,-99.99,,,-99.99,,2013-05-03 19:21:00,
2013-05-03 12:32:00,72.0,22.0,-100.00,NW,326,8.0,13.0,15,-99.99,,,-99.99,,2013-05-03 19:32:00,
2013-05-03 12:42:00,72.0,22.0,-100.00,NW,326,8.0,13.0,15,-99.99,,,-99.99,,2013-05-03 19:42:00,
2013-05-03 12:52:00,72.0,26.0,-100.00,WNW,296,7.0,13.0,18,-99.99,,,-99.99,,2013-05-03 19:52:00,
2013-05-03 13:02:00,72.0,26.0,-100.00,WNW,296,7.0,13.0,18,-99.99,,,-99.99,,2013-05-03 20:02:00,
2013-05-03 13:11:00,72.0,26.0,-100.00,WNW,296,7.0,13.0,18,-99.99,,,-99.99,,2013-05-03 20:11:00,
2013-05-03 13:21:00,76.0,28.0,-100.00,North,353,3.0,9.0,17,-99.99,,,-99.99,,2013-05-03 20:21:00,
2013-05-03 13:32:00,73.0,24.0,-100.00,NNW,339,6.0,15.0,16,-99.99,,,-99.99,,2013-05-03 20:32:00,
2013-05-03 13:42:00,73.0,24.0,-100.00,NNW,339,6.0,15.0,16,-99.99,,,-99.99,,2013-05-03 20:42:00,
2013-05-03 13:52:00,76.0,28.0,-100.00,North,353,3.0,9.0,17,-99.99,,,-99.99,,2013-05-03 20:52:00,
2013-05-03 14:01:00,76.0,28.0,-100.00,North,353,3.0,9.0,17,-99.99,,,-99.99,,2013-05-03 21:01:00,
2013-05-03 14:11:00,76.0,28.0,-100.00,North,353,3.0,9.0,17,-99.99,,,-99.99,,2013-05-03 21:11:00,
2013-05-03 14:21:00,76.0,25.0,-100.00,NNW,346,5.0,13.0,15,-99.99,,,-99.99,,2013-05-03 21:21:00,
2013-05-03 14:33:00,76.0,25.0,-100.00,NNW,332,6.0,15.0,15,-99.99,,,-99.99,,2013-05-03 21:33:00,
2013-05-03 14:43:00,76.0,25.0,-100.00,NNW,332,6.0,15.0,15,-99.99,,,-99.99,,2013-05-03 21:43:00,
2013-05-03 14:53:00,76.0,25.0,-100.00,NNW,346,5.0,13.0,15,-99.99,,,-99.99,,2013-05-03 21:53:00,
2013-05-03 15:02:00,76.0,25.0,-100.00,NNW,346,5.0,13.0,15,-99.99,,,-99.99,,2013-05-03 22:02:00,
2013-05-03 15:12:00,76.0,25.0,-100.00,NNW,346,5.0,13.0,15,-99.99,,,-99.99,,2013-05-03 22:12:00,
2013-05-03 17:52:00,74.0,29.0,-100.00,NW,315,13.0,21.0,19,-99.99,,,-99.99,,2013-05-04 00:52:00,
2013-05-03 18:01:00,74.0,29.0,-100.00,NW,315,13.0,21.0,19,-99.99,,,-99.99,,2013-05-04 01:01:00,
2013-05-03 18:11:00,75.0,17.0,-100.00,NW,315,16.0,22.0,11,-99.99,,,-99.99,,2013-05-04 01:11:00,
2013-05-03 18:21:00,75.0,17.0,-100.00,NW,315,16.0,22.0,11,-99.99,,,-99.99,,2013-05-04 01:21:00,
2013-05-03 18:31:00,72.0,29.0,-100.00,NW,312,16.0,22.0,20,-99.99,,,-99.99,,2013-05-04 01:31:00,
2013-05-03 18:41:00,72.0,29.0,-100.00,NW,312,16.0,22.0,20,-99.99,,,-99.99,,2013-05-04 01:41:00,
2013-05-03 18:52:00,71.0,27.0,-100.00,NW,311,15.0,23.0,19,-99.99,,,-99.99,,2013-05-04 01:52:00,
2013-05-03 19:02:00,71.0,27.0,-100.00,NW,311,15.0,23.0,19,-99.99,,,-99.99,,2013-05-04 02:02:00,
2013-05-03 19:11:00,72.0,18.0,-100.00,NW,316,15.0,23.0,13,-99.99,,,-99.99,,2013-05-04 02:11:00,
2013-05-03 19:21:00,72.0,18.0,-100.00,NW,316,15.0,23.0,13,-99.99,,,-99.99,,2013-05-04 02:21:00,
2013-05-03 19:32:00,68.0,25.0,-100.00,NW,313,13.0,19.0,19,-99.99,,,-99.99,,2013-05-04 02:32:00,
2013-05-03 19:41:00,68.0,25.0,-100.00,NW,313,13.0,19.0,19,-99.99,,,-99.99,,2013-05-04 02:41:00,
2013-05-03 19:52:00,70.0,15.0,-100.00,NW,320,12.0,18.0,12,-99.99,,,-99.99,,2013-05-04 02:52:00,
2013-05-03 20:02:00,70.0,15.0,-100.00,NW,320,12.0,18.0,12,-99.99,,,-99.99,,2013-05-04 03:02:00,
2013-05-03 20:11:00,70.0,15.0,-100.00,NW,320,12.0,18.0,12,-99.99,,,-99.99,,2013-05-04 03:11:00,
2013-05-03 20:53:00,60.0,26.0,-100.00,WNW,302,10.0,12.0,27,-99.99,,,-99.99,,2013-05-04 03:53:00,
2013-05-03 21:02:00,60.0,26.0,-100.00,WNW,302,10.0,12.0,27,-99.99,,,-99.99,,2013-05-04 04:02:00,
2013-05-03 21:21:00,58.0,20.0,-100.00,NW,309,9.0,11.0,23,-99.99,,,-99.99,,2013-05-04 04:21:00,
2013-05-03 21:33:00,60.0,20.0,-100.00,NW,316,6.0,9.0,21,-99.99,,,-99.99,,2013-05-04 04:33:00,
2013-05-03 21:43:00,60.0,20.0,-100.00,NW,316,6.0,9.0,21,-99.99,,,-99.99,,2013-05-04 04:43:00,
2013-05-03 21:52:00,58.0,20.0,-100.00,NW,309,9.0,11.0,23,-99.99,,,-99.99,,2013-05-04 04:52:00,
2013-05-03 22:02:00,58.0,20.0,-100.00,NW,309,9.0,11.0,23,-99.99,,,-99.99,,2013-05-04 05:02:00,
2013-05-03 22:32:00,58.0,18.0,-100.00,NE,34,3.0,5.0,21,-99.99,,,-99.99,,2013-05-04 05:32:00,
2013-05-03 22:43:00,58.0,18.0,-100.00,NE,34,3.0,5.0,21,-99.99,,,-99.99,,2013-05-04 05:43:00,
2013-05-03 22:52:00,54.0,32.0,-100.00,North,350,1.0,4.0,43,-99.99,,,-99.99,,2013-05-04 05:52:00,
2013-05-03 23:01:00,54.0,32.0,-100.00,North,350,1.0,4.0,43,-99.99,,,-99.99,,2013-05-04 06:01:00,
2013-05-03 23:32:00,52.0,20.0,-100.00,NE,38,2.0,5.0,28,-99.99,,,-99.99,,2013-05-04 06:32:00,
2013-05-03 23:52:00,46.0,29.0,-100.00,SSE,165,2.0,6.0,52,-99.99,,,-99.99,,2013-05-04 06:52:00,